Time;durP1;ratioP1;P1;durP2;ratioP2;P2;SDS_P1;SDS_P2;PMS_P1;PMS_P2;Temp;Humidity;BMP_temperature;BMP_pressure;BME280_temperature;BME280_humidity;BME280_pressure;Samples;Min_cycle;Max_cycle;Signal;HPM_P1;HPM_P2
2021/09/27 00:00:00;;;;;;;17.38;14.70;;;;;;;18.46;73.05;100311.25;5073075;28;20044;-62
2021/09/27 00:02:27;;;;;;;16.98;14.77;;;;;;;18.40;73.14;100311.94;5072814;28;20059;-62
2021/09/27 00:04:55;;;;;;;16.35;14.52;;;;;;;18.34;73.42;100313.41;5072801;28;20053;-62
2021/09/27 00:07:22;;;;;;;16.98;14.95;;;;;;;18.28;73.79;100315.69;5072775;28;20049;-62
2021/09/27 00:09:49;;;;;;;18.15;15.43;;;;;;;18.26;73.89;100313.25;5072563;28;20498;-62
2021/09/27 00:12:17;;;;;;;16.35;14.63;;;;;;;18.20;73.77;100316.72;5072678;28;20526;-62
2021/09/27 00:14:44;;;;;;;18.67;16.17;;;;;;;18.13;73.84;100311.75;5072835;28;20075;-62
2021/09/27 00:17:13;;;;;;;18.52;15.48;;;;;;;18.08;74.06;100317.72;5072780;28;20048;-62
2021/09/27 00:19:40;;;;;;;17.15;14.90;;;;;;;18.02;73.98;100320.00;5073137;28;20040;-62
2021/09/27 00:22:08;;;;;;;19.02;16.30;;;;;;;17.98;74.38;100310.63;5072348;28;20056;-62
2021/09/27 00:24:36;;;;;;;20.33;16.15;;;;;;;17.97;74.23;100309.00;5072072;28;20055;-62
2021/09/27 00:27:04;;;;;;;21.63;17.05;;;;;;;17.93;74.50;100315.72;5072196;28;20048;-62
2021/09/27 00:29:31;;;;;;;19.73;16.10;;;;;;;17.87;74.65;100317.22;5072610;28;20048;-62
2021/09/27 00:31:59;;;;;;;20.92;15.82;;;;;;;17.84;74.84;100316.75;5073161;28;20521;-62
2021/09/27 00:34:27;;;;;;;20.73;16.95;;;;;;;17.81;75.01;100314.66;5072696;28;20052;-62
2021/09/27 00:36:55;;;;;;;21.47;17.07;;;;;;;17.81;75.30;100311.03;5072562;28;20494;-62
2021/09/27 00:39:22;;;;;;;19.52;16.67;;;;;;;17.79;75.25;100310.59;5072023;28;20470;-62
2021/09/27 00:41:49;;;;;;;19.90;16.30;;;;;;;17.77;75.28;100313.75;5071601;28;20063;-62
2021/09/27 00:44:17;;;;;;;20.65;16.17;;;;;;;17.71;75.12;100309.59;5052627;28;20049;-62
2021/09/27 00:46:46;;;;;;;23.20;16.63;;;;;;;17.68;75.05;100317.94;5052049;28;20060;-62
2021/09/27 00:49:14;;;;;;;19.25;16.13;;;;;;;17.65;74.71;100311.88;5054501;28;20055;-62
2021/09/27 00:51:45;;;;;;;17.50;15.23;;;;;;;17.65;75.02;100314.69;5066332;28;20056;-62
2021/09/27 00:54:17;;;;;;;16.60;14.43;;;;;;;17.64;76.16;100301.00;5076785;28;20471;-62
2021/09/27 00:56:47;;;;;;;18.48;15.13;;;;;;;17.60;75.80;100306.53;5075679;28;20055;-62
2021/09/27 00:59:16;;;;;;;14.68;13.15;;;;;;;17.60;75.57;100300.09;5076355;28;20048;-62
2021/09/27 01:01:43;;;;;;;16.52;14.70;;;;;;;17.57;75.34;100301.59;5075879;28;20052;-62
2021/09/27 01:04:11;;;;;;;16.42;13.35;;;;;;;17.52;75.95;100296.28;5076551;28;20048;-62
2021/09/27 01:06:59;;;;;;;17.15;14.95;;;;;;;17.55;75.26;100298.34;5075287;28;20057;-62
2021/09/27 01:09:39;;;;;;;21.77;16.50;;;;;;;17.48;74.79;100295.38;5075773;28;20060;-62
2021/09/27 01:12:26;;;;;;;18.00;15.52;;;;;;;17.42;74.78;100294.00;5075817;28;20414;-62
2021/09/27 01:15:19;;;;;;;19.08;15.40;;;;;;;17.40;74.76;100290.75;5075760;28;20048;-62
2021/09/27 01:18:00;;;;;;;17.50;15.27;;;;;;;17.34;74.69;100295.81;5075718;28;20059;-62
2021/09/27 01:21:03;;;;;;;19.75;15.20;;;;;;;17.26;74.80;100299.69;5075789;28;20450;-62
2021/09/27 01:24:09;;;;;;;20.48;15.60;;;;;;;17.18;74.91;100303.50;5061066;28;20072;-62
2021/09/27 01:27:06;;;;;;;19.15;15.30;;;;;;;17.10;75.09;100299.66;5056609;28;20068;-62
2021/09/27 01:29:57;;;;;;;21.42;17.27;;;;;;;17.06;75.18;100293.13;5075331;28;20410;-62
2021/09/27 01:32:40;;;;;;;18.63;15.07;;;;;;;17.02;75.06;100295.84;5075385;28;20475;-62
2021/09/27 01:35:20;;;;;;;19.85;15.30;;;;;;;16.98;75.40;100296.94;5075247;28;20056;-62
2021/09/27 01:38:06;;;;;;;20.08;15.73;;;;;;;16.94;75.30;100307.28;5073916;28;20056;-62
2021/09/27 01:40:43;;;;;;;18.42;14.82;;;;;;;16.89;75.36;100299.13;5061987;28;20052;-62
2021/09/27 01:43:19;;;;;;;19.98;15.85;;;;;;;16.86;75.32;100297.81;5075440;28;20064;-62
2021/09/27 01:45:53;;;;;;;18.45;15.27;;;;;;;16.84;75.77;100308.66;5074830;28;20064;-62
2021/09/27 01:48:27;;;;;;;17.65;14.88;;;;;;;16.80;76.13;100293.63;5075648;28;20067;-62
2021/09/27 01:50:59;;;;;;;17.45;15.10;;;;;;;16.79;76.09;100294.81;5075000;28;20387;-62
2021/09/27 01:53:33;;;;;;;18.15;15.10;;;;;;;16.79;76.26;100303.25;5075088;28;20059;-62
2021/09/27 01:56:09;;;;;;;15.02;13.43;;;;;;;16.81;76.25;100298.09;5073361;28;20048;-62
2021/09/27 01:58:57;;;;;;;14.90;12.85;;;;;;;16.81;75.94;100298.91;5075699;28;20057;-62
2021/09/27 02:01:32;;;;;;;15.55;12.80;;;;;;;16.82;75.62;100299.75;5074641;28;20072;-62
2021/09/27 02:04:07;;;;;;;16.52;13.45;;;;;;;16.80;75.66;100296.44;5074238;28;20071;-62
2021/09/27 02:06:41;;;;;;;15.57;13.25;;;;;;;16.79;75.81;100301.25;5074587;28;20490;-62
2021/09/27 02:09:15;;;;;;;16.67;12.85;;;;;;;16.80;76.15;100305.72;5075436;28;20053;-62
2021/09/27 02:11:45;;;;;;;15.30;13.27;;;;;;;16.81;76.31;100300.91;5074403;28;20052;-62
2021/09/27 02:14:25;;;;;;;14.25;12.57;;;;;;;16.86;76.30;100297.00;5075068;28;20048;-62
2021/09/27 02:17:00;;;;;;;14.05;11.77;;;;;;;16.93;76.13;100292.41;5074111;28;20162;-61
2021/09/27 02:19:34;;;;;;;14.27;12.52;;;;;;;16.99;76.39;100290.94;5074856;28;20048;-61
2021/09/27 02:22:08;;;;;;;17.02;12.30;;;;;;;17.03;76.24;100277.78;5074453;28;20055;-61
2021/09/27 02:24:41;;;;;;;12.88;11.35;;;;;;;17.02;76.94;100264.88;5074406;28;20418;-61
2021/09/27 02:27:08;;;;;;;17.33;12.45;;;;;;;17.11;76.35;100278.78;5074264;28;20059;-61
2021/09/27 02:29:36;;;;;;;12.48;11.13;;;;;;;17.11;76.29;100267.50;5074879;28;20052;-61
2021/09/27 02:32:10;;;;;;;13.13;11.73;;;;;;;17.12;76.25;100259.91;5074127;28;20048;-61
2021/09/27 02:34:48;;;;;;;15.18;12.23;;;;;;;17.11;76.23;100264.69;5074625;28;20052;-60
2021/09/27 02:37:23;;;;;;;16.15;13.50;;;;;;;17.08;76.23;100262.63;5074140;28;20478;-61
2021/09/27 02:39:58;;;;;;;13.77;12.27;;;;;;;17.07;76.20;100266.59;5073605;28;20064;-61
2021/09/27 02:42:32;;;;;;;16.42;12.43;;;;;;;17.10;76.82;100260.28;5054226;28;20053;-61
2021/09/27 02:45:00;;;;;;;14.13;12.18;;;;;;;17.07;76.37;100262.97;5053965;28;20078;-61
2021/09/27 02:47:35;;;;;;;18.15;13.45;;;;;;;17.04;75.97;100273.78;5053728;28;20053;-60
2021/09/27 02:50:07;;;;;;;16.27;12.82;;;;;;;16.99;75.91;100271.25;5054179;28;20068;-60
2021/09/27 02:52:34;;;;;;;16.50;12.15;;;;;;;16.92;75.81;100279.50;5068335;28;20078;-60
2021/09/27 02:55:06;;;;;;;15.10;13.30;;;;;;;16.91;75.85;100261.00;5073473;28;20056;-61
2021/09/27 02:58:05;;;;;;;15.52;13.02;;;;;;;16.94;75.50;100262.25;5074286;28;20063;-61
2021/09/27 03:00:39;;;;;;;16.00;12.63;;;;;;;16.91;75.45;100258.19;5073303;28;20056;-61
2021/09/27 03:03:13;;;;;;;16.02;13.02;;;;;;;16.89;75.56;100262.53;5073829;28;20051;-60
2021/09/27 03:05:56;;;;;;;14.15;11.55;;;;;;;16.90;75.48;100256.53;5073646;28;20075;-61
2021/09/27 03:08:38;;;;;;;15.80;11.93;;;;;;;16.93;75.56;100258.63;5073894;28;20052;-61
2021/09/27 03:11:46;;;;;;;13.57;11.73;;;;;;;16.93;75.66;100255.81;5073096;28;20045;-61
2021/09/27 03:14:36;;;;;;;14.05;11.18;;;;;;;16.97;75.86;100261.56;5052629;28;20578;-61
2021/09/27 03:17:10;;;;;;;14.10;11.27;;;;;;;17.02;75.69;100259.25;5073288;28;20326;-61
2021/09/27 03:19:49;;;;;;;14.05;11.32;;;;;;;17.08;75.28;100264.63;5073491;28;20056;-61
2021/09/27 03:22:29;;;;;;;14.35;10.85;;;;;;;17.08;75.06;100267.44;5073320;28;20071;-61
2021/09/27 03:25:09;;;;;;;13.93;11.48;;;;;;;17.11;74.82;100266.72;5072220;28;20045;-60
2021/09/27 03:27:49;;;;;;;12.88;10.88;;;;;;;17.16;74.73;100269.25;5073750;28;20064;-61
2021/09/27 03:30:23;;;;;;;15.05;11.40;;;;;;;17.20;74.41;100265.34;5073145;28;20052;-62
2021/09/27 03:33:01;;;;;;;16.13;11.35;;;;;;;17.23;74.36;100263.78;5073131;28;20055;-62
2021/09/27 03:35:38;;;;;;;13.70;12.10;;;;;;;17.27;74.50;100264.69;5073161;28;20063;-62
2021/09/27 03:38:13;;;;;;;13.00;11.15;;;;;;;17.31;74.52;100251.53;5072755;28;20056;-62
2021/09/27 03:40:58;;;;;;;14.23;11.85;;;;;;;17.31;74.17;100257.16;5073073;28;20048;-61
2021/09/27 03:43:43;;;;;;;12.57;11.00;;;;;;;17.30;74.20;100252.69;5073192;28;20049;-61
2021/09/27 03:46:18;;;;;;;13.70;10.80;;;;;;;17.29;73.99;100256.72;5073131;28;20425;-62
2021/09/27 03:48:52;;;;;;;13.63;11.10;;;;;;;17.27;74.02;100247.00;5073133;28;20059;-62
2021/09/27 03:51:26;;;;;;;14.65;11.82;;;;;;;17.24;74.14;100248.56;5072761;28;20048;-62
2021/09/27 03:53:58;;;;;;;16.02;11.85;;;;;;;17.23;74.29;100258.97;5071359;28;20056;-62
2021/09/27 03:56:31;;;;;;;13.05;11.02;;;;;;;17.24;74.32;100257.00;5072673;28;20514;-62
2021/09/27 03:59:05;;;;;;;13.50;10.68;;;;;;;17.25;74.61;100262.25;5072642;28;20052;-62
2021/09/27 04:01:40;;;;;;;13.57;11.52;;;;;;;17.24;74.79;100254.19;5072733;28;20060;-62
2021/09/27 04:04:28;;;;;;;15.70;12.13;;;;;;;17.27;74.70;100261.88;5071877;28;20052;-63
2021/09/27 04:07:12;;;;;;;13.85;11.30;;;;;;;17.28;74.52;100255.06;5071885;28;20055;-62
2021/09/27 04:09:49;;;;;;;14.63;12.40;;;;;;;17.23;74.55;100247.72;5072224;28;20069;-62
2021/09/27 04:12:28;;;;;;;13.63;12.18;;;;;;;17.20;74.38;100247.66;5072641;28;20048;-62
2021/09/27 04:15:08;;;;;;;16.40;12.63;;;;;;;17.13;74.40;100253.09;5072358;28;20048;-62
2021/09/27 04:17:45;;;;;;;16.38;12.98;;;;;;;17.07;74.59;100249.72;5072065;28;20056;-62
2021/09/27 04:20:18;;;;;;;15.15;12.85;;;;;;;17.02;74.98;100248.00;5072755;28;20504;-62
2021/09/27 04:23:00;;;;;;;17.58;13.95;;;;;;;16.99;75.22;100243.13;5072168;28;20059;-62
2021/09/27 04:25:38;;;;;;;17.58;13.45;;;;;;;16.99;75.41;100243.13;5072265;28;20049;-62
2021/09/27 04:28:33;;;;;;;16.33;12.82;;;;;;;16.96;75.79;100238.19;5072318;28;20430;-62
2021/09/27 04:31:15;;;;;;;15.07;11.75;;;;;;;16.99;76.04;100240.31;5071997;28;20052;-62
2021/09/27 04:34:14;;;;;;;16.10;12.35;;;;;;;16.95;76.14;100230.97;5072654;28;20055;-62
2021/09/27 04:36:45;;;;;;;15.20;11.60;;;;;;;16.94;75.89;100234.13;5072288;28;20064;-62
2021/09/27 04:39:16;;;;;;;14.77;11.85;;;;;;;16.92;76.81;100236.47;5071479;28;20052;-62
2021/09/27 04:42:07;;;;;;;15.07;12.13;;;;;;;16.87;76.32;100231.94;5072059;28;20048;-62
2021/09/27 04:44:47;;;;;;;15.80;11.82;;;;;;;16.89;76.86;100226.78;5072370;28;20052;-62
2021/09/27 04:47:23;;;;;;;14.95;11.50;;;;;;;16.89;76.79;100238.03;5072099;28;20060;-62
2021/09/27 04:50:05;;;;;;;15.70;11.73;;;;;;;16.88;77.05;100230.75;5072358;28;20057;-62
2021/09/27 04:52:40;;;;;;;15.05;12.65;;;;;;;16.86;76.07;100223.88;5071558;28;20073;-62
2021/09/27 04:55:41;;;;;;;16.83;12.95;;;;;;;16.80;75.90;100228.94;5071943;28;20420;-62
2021/09/27 04:58:31;;;;;;;18.90;13.77;;;;;;;16.77;75.51;100232.47;5071898;28;20402;-62
2021/09/27 05:01:12;;;;;;;18.70;13.93;;;;;;;16.69;76.54;100239.06;5072007;28;20048;-62
2021/09/27 05:04:03;;;;;;;15.38;13.25;;;;;;;16.64;76.37;100235.34;5072020;28;20573;-62
2021/09/27 05:06:53;;;;;;;17.05;13.13;;;;;;;16.62;76.11;100239.72;5068431;28;20053;-62
2021/09/27 05:09:35;;;;;;;16.85;13.52;;;;;;;16.62;76.11;100234.91;5052251;28;20059;-62
2021/09/27 05:12:42;;;;;;;15.27;13.65;;;;;;;16.56;75.94;100225.09;5063414;28;20474;-62
2021/09/27 05:15:40;;;;;;;20.25;15.18;;;;;;;16.50;76.28;100226.53;5065869;28;20056;-62
2021/09/27 05:18:50;;;;;;;19.42;15.02;;;;;;;16.46;76.17;100211.56;5070139;28;20522;-62
2021/09/27 05:21:34;;;;;;;19.25;14.75;;;;;;;16.43;76.15;100209.50;5071421;28;20056;-62
2021/09/27 05:24:23;;;;;;;19.85;15.73;;;;;;;16.38;76.36;100206.94;5071542;28;20049;-62
2021/09/27 05:27:04;;;;;;;20.20;15.52;;;;;;;16.37;76.59;100210.94;5071665;28;20491;-62
2021/09/27 05:29:49;;;;;;;18.88;15.70;;;;;;;16.37;76.46;100208.94;5071718;28;20048;-62
2021/09/27 05:32:32;;;;;;;24.48;16.65;;;;;;;16.39;76.40;100217.00;5071604;28;20052;-62
2021/09/27 05:35:13;;;;;;;17.25;13.88;;;;;;;16.38;76.21;100213.38;5071914;28;20067;-62
2021/09/27 05:37:56;;;;;;;20.25;14.30;;;;;;;16.38;75.88;100212.56;5074837;28;20052;-62
2021/09/27 05:40:33;;;;;;;26.88;14.77;;;;;;;16.35;75.92;100222.53;5075668;28;20063;-62
2021/09/27 05:43:11;;;;;;;26.60;14.43;;;;;;;16.38;75.84;100219.00;5074947;28;20051;-62
2021/09/27 05:45:50;;;;;;;19.92;14.48;;;;;;;16.39;75.79;100217.00;5072982;28;20053;-62
2021/09/27 05:48:27;;;;;;;38.50;16.83;;;;;;;16.37;75.96;100210.94;5074844;28;20059;-62
2021/09/27 05:51:04;;;;;;;31.80;16.27;;;;;;;16.42;75.93;100211.50;5074455;28;20052;-62
2021/09/27 05:53:42;;;;;;;25.00;14.38;;;;;;;16.42;75.96;100214.31;5074751;28;20052;-62
2021/09/27 05:56:16;;;;;;;21.83;14.25;;;;;;;16.48;75.86;100206.41;5074426;28;20071;-62
2021/09/27 05:58:53;;;;;;;23.55;14.32;;;;;;;16.52;75.65;100212.94;5074999;28;20448;-62
2021/09/27 06:01:31;;;;;;;18.13;12.80;;;;;;;16.59;76.47;100207.50;5075141;28;20052;-62
2021/09/27 06:04:17;;;;;;;21.90;14.20;;;;;;;16.70;76.58;100195.72;5075348;28;20057;-62
2021/09/27 06:06:53;;;;;;;17.10;13.05;;;;;;;16.70;77.50;100202.16;5072672;28;20399;-62
2021/09/27 06:09:34;;;;;;;12.75;10.60;;;;;;;16.42;80.24;100202.22;5074588;28;20045;-51
2021/09/27 06:12:09;;;;;;;14.95;11.50;;;;;;;16.81;78.41;100197.66;5070763;28;20422;-50
2021/09/27 06:14:40;;;;;;;15.70;11.75;;;;;;;17.08;77.83;100197.09;5073459;28;20053;-50
2021/09/27 06:17:33;;;;;;;14.63;12.20;;;;;;;17.42;76.28;100199.09;5074901;28;20056;-50
2021/09/27 06:20:08;;;;;;;13.02;10.50;;;;;;;17.88;74.15;100198.50;5073348;28;20067;-50
2021/09/27 06:22:53;;;;;;;14.82;11.20;;;;;;;18.35;72.13;100185.31;5073012;28;20055;-50
2021/09/27 06:25:28;;;;;;;14.05;10.95;;;;;;;18.55;70.37;100186.91;5073287;28;20048;-51
2021/09/27 06:28:09;;;;;;;12.27;10.60;;;;;;;18.90;69.37;100185.09;5073811;28;20056;-53
2021/09/27 06:30:44;;;;;;;14.48;9.13;;;;;;;19.54;67.29;100188.06;5075095;28;20053;-51
2021/09/27 06:33:20;;;;;;;10.98;8.75;;;;;;;20.25;64.91;100191.81;5075124;28;20056;-51
2021/09/27 06:35:52;;;;;;;10.30;8.13;;;;;;;20.75;62.68;100188.69;5075221;28;20048;-50
2021/09/27 06:38:27;;;;;;;11.68;8.88;;;;;;;20.69;62.90;100184.59;5074514;28;20061;-51
2021/09/27 06:40:55;;;;;;;9.02;7.95;;;;;;;21.07;61.38;100186.13;5074854;28;20516;-50
2021/09/27 06:43:24;;;;;;;11.32;7.93;;;;;;;21.63;59.63;100180.44;5074717;28;20391;-51
2021/09/27 06:45:54;;;;;;;8.68;7.28;;;;;;;22.07;58.78;100185.06;5073353;28;20059;-51
2021/09/27 06:48:21;;;;;;;;;;;;;;;22.56;58.05;100189.25;5074582;28;20053;-53
2021/09/27 06:50:51;;;;;;;8.65;7.57;;;;;;;23.42;55.13;100172.19;5074626;28;19920;-51
2021/09/27 06:53:18;;;;;;;7.88;6.55;;;;;;;23.94;53.68;100167.97;5073069;28;20514;-52
2021/09/27 06:55:47;;;;;;;9.40;6.75;;;;;;;24.67;51.36;100152.91;5074443;28;20131;-51
2021/09/27 06:58:14;;;;;;;7.93;5.97;;;;;;;23.95;52.10;100170.41;5074008;28;20482;-54
2021/09/27 07:00:42;;;;;;;6.60;5.90;;;;;;;23.88;52.66;100159.88;5074719;28;20048;-52
2021/09/27 07:03:10;;;;;;;6.75;5.95;;;;;;;23.27;53.93;100151.53;5072999;28;20380;-51
2021/09/27 07:05:37;;;;;;;7.32;6.00;;;;;;;22.48;56.66;100160.03;5073052;28;20063;-51
2021/09/27 07:08:08;;;;;;;7.22;6.22;;;;;;;24.47;51.03;100150.59;5063553;28;20056;-61
2021/09/27 07:10:37;;;;;;;6.00;5.40;;;;;;;25.20;48.82;100156.50;5053939;28;20099;-61
2021/09/27 07:13:04;;;;;;;6.60;5.85;;;;;;;25.78;46.67;100151.81;5063735;28;20057;-61
2021/09/27 07:15:32;;;;;;;5.72;5.13;;;;;;;25.69;47.31;100146.63;5056564;28;20052;-62
2021/09/27 07:17:59;;;;;;;6.30;5.70;;;;;;;26.65;44.77;100140.81;5059145;28;20060;-61
2021/09/27 07:20:28;;;;;;;6.28;5.00;;;;;;;26.31;44.97;100146.63;5057238;28;20507;-62
2021/09/27 07:22:58;;;;;;;7.22;5.80;;;;;;;26.64;44.17;100144.91;5065691;28;20056;-61
2021/09/27 07:25:31;;;;;;;6.60;5.57;;;;;;;26.97;43.62;100139.47;5056727;28;20514;-62
2021/09/27 07:28:00;;;;;;;6.03;5.30;;;;;;;27.21;43.22;100148.03;5063513;28;20056;-61
2021/09/27 07:30:29;;;;;;;6.07;5.47;;;;;;;26.76;43.47;100151.28;5055021;28;20053;-61
2021/09/27 07:33:00;;;;;;;5.72;5.18;;;;;;;26.50;44.00;100154.50;5066462;28;20403;-60
2021/09/27 07:35:32;;;;;;;6.43;5.57;;;;;;;27.05;43.97;100143.81;5056073;28;20075;-61
2021/09/27 07:38:00;;;;;;;5.90;5.40;;;;;;;28.56;40.24;100149.31;5057996;28;20059;-60
2021/09/27 07:40:30;;;;;;;6.03;5.40;;;;;;;28.26;40.24;100159.78;5057068;28;20049;-59
2021/09/27 07:42:58;;;;;;;7.95;5.53;;;;;;;27.67;41.37;100150.00;5057504;28;20049;-61
2021/09/27 07:45:27;;;;;;;5.53;5.03;;;;;;;27.67;41.07;100152.06;5062415;28;20056;-61
2021/09/27 07:47:55;;;;;;;6.63;5.45;;;;;;;27.62;41.85;100169.75;5068653;28;20521;-61
2021/09/27 07:50:22;;;;;;;5.93;4.95;;;;;;;27.59;41.67;100159.16;5060047;28;20049;-61
2021/09/27 07:52:50;;;;;;;6.47;5.40;;;;;;;27.81;41.18;100168.94;5058782;28;20079;-62
2021/09/27 07:55:19;;;;;;;7.03;5.20;;;;;;;28.44;40.28;100159.38;5053750;28;20052;-60
2021/09/27 07:57:47;;;;;;;7.28;5.57;;;;;;;28.13;40.19;100176.06;5064026;28;20052;-61
2021/09/27 08:00:18;;;;;;;5.10;4.70;;;;;;;28.28;39.54;100167.94;5067667;28;20061;-61
2021/09/27 08:02:46;;;;;;;5.40;4.90;;;;;;;29.39;38.60;100155.81;5062481;28;20459;-61
2021/09/27 08:05:15;;;;;;;5.50;5.00;;;;;;;29.99;36.62;100159.03;5062110;28;20067;-62
2021/09/27 08:07:44;;;;;;;5.35;4.85;;;;;;;29.01;38.20;100167.84;5061786;28;20056;-62
2021/09/27 08:10:14;;;;;;;5.38;4.88;;;;;;;30.40;36.00;100173.81;5065938;28;20052;-62
2021/09/27 08:12:41;;;;;;;5.28;4.78;;;;;;;30.22;35.85;100163.66;5057063;28;20052;-62
2021/09/27 08:15:13;;;;;;;5.70;5.25;;;;;;;30.24;36.22;100158.25;5066998;28;20059;-62
2021/09/27 08:17:41;;;;;;;5.60;5.10;;;;;;;30.14;36.12;100156.53;5061083;28;20057;-62
2021/09/27 08:20:11;;;;;;;6.67;5.30;;;;;;;30.65;35.54;100167.25;5061487;28;20052;-63
2021/09/27 08:22:40;;;;;;;6.22;5.63;;;;;;;29.50;37.04;100154.25;5058222;28;20061;-62
2021/09/27 08:25:08;;;;;;;5.20;4.70;;;;;;;27.98;39.60;100166.97;5054896;28;20514;-62
2021/09/27 08:27:36;;;;;;;6.13;5.53;;;;;;;27.21;41.38;100176.63;5055512;28;20049;-62
2021/09/27 08:30:04;;;;;;;6.10;5.50;;;;;;;26.17;43.82;100156.22;5063539;28;20056;-62
2021/09/27 08:32:33;;;;;;;6.30;5.70;;;;;;;26.08;44.22;100165.31;5061634;28;20056;-62
2021/09/27 08:35:00;;;;;;;6.38;5.78;;;;;;;27.18;42.55;100160.34;5068741;28;20051;-62
2021/09/27 08:37:28;;;;;;;6.68;5.72;;;;;;;28.07;40.69;100158.56;5066029;28;20060;-62
2021/09/27 08:39:56;;;;;;;6.50;5.88;;;;;;;29.71;36.65;100152.88;5064875;28;20423;-63
2021/09/27 08:42:28;;;;;;;5.65;5.15;;;;;;;29.96;36.40;100151.31;5063001;28;20068;-62
2021/09/27 08:45:02;;;;;;;5.50;5.00;;;;;;;29.48;37.06;100145.31;5069246;28;20059;-63
2021/09/27 08:47:36;;;;;;;6.07;4.90;;;;;;;28.77;38.49;100132.81;5054575;28;20053;-63
2021/09/27 08:50:08;;;;;;;6.20;5.47;;;;;;;29.38;37.56;100140.66;5050122;28;20056;-62
2021/09/27 08:52:39;;;;;;;7.20;5.70;;;;;;;29.77;36.47;100133.00;5065256;28;20407;-62
2021/09/27 08:55:10;;;;;;;6.03;5.40;;;;;;;30.31;35.80;100137.13;5061511;28;20052;-61
2021/09/27 08:57:49;;;;;;;4.88;4.47;;;;;;;30.43;35.51;100133.47;5054925;28;20049;-61
2021/09/27 09:00:31;;;;;;;5.40;4.43;;;;;;;29.03;37.66;100126.00;5065671;28;20057;-61
2021/09/27 09:03:08;;;;;;;5.97;5.38;;;;;;;28.91;38.71;100124.66;5062743;28;20056;-62
2021/09/27 09:05:43;;;;;;;5.10;4.60;;;;;;;29.73;36.72;100117.94;5059654;28;20052;-62
2021/09/27 09:08:17;;;;;;;4.88;4.38;;;;;;;30.23;36.58;100124.22;5066082;28;20057;-62
2021/09/27 09:10:50;;;;;;;5.82;4.20;;;;;;;30.07;35.79;100123.09;5066177;28;20076;-62
2021/09/27 09:13:25;;;;;;;6.43;5.30;;;;;;;30.60;34.83;100134.16;5065154;28;20048;-61
2021/09/27 09:16:02;;;;;;;4.68;4.20;;;;;;;29.62;36.38;100120.31;5067907;28;20055;-61
2021/09/27 09:18:34;;;;;;;5.53;4.68;;;;;;;29.42;37.40;100117.59;5062587;28;20060;-62
2021/09/27 09:21:07;;;;;;;4.63;4.22;;;;;;;29.71;36.83;100117.59;5055675;28;20484;-62
2021/09/27 09:23:38;;;;;;;5.00;4.60;;;;;;;29.28;36.76;100118.81;5064695;28;20068;-61
2021/09/27 09:26:08;;;;;;;4.90;4.40;;;;;;;29.79;36.61;100121.06;5072306;28;20049;-62
2021/09/27 09:28:36;;;;;;;4.63;4.22;;;;;;;31.88;33.26;100107.81;5066453;28;20048;-62
2021/09/27 09:31:09;;;;;;;4.40;4.00;;;;;;;33.38;30.61;100110.69;5063264;28;20056;-61
2021/09/27 09:33:46;;;;;;;4.80;3.85;;;;;;;33.72;29.41;100129.78;5069811;28;20479;-61
2021/09/27 09:36:19;;;;;;;4.05;3.33;;;;;;;33.23;30.24;100116.31;5069793;28;20471;-61
2021/09/27 09:38:47;;;;;;;4.00;3.60;;;;;;;33.78;29.27;100109.72;5054408;28;20507;-61
2021/09/27 09:41:15;;;;;;;4.53;3.53;;;;;;;33.36;29.41;100119.84;5070228;28;20414;-61
2021/09/27 09:43:46;;;;;;;3.60;3.30;;;;;;;32.36;30.83;100113.38;5066788;28;20048;-62
2021/09/27 09:46:18;;;;;;;3.95;3.55;;;;;;;33.17;29.83;100119.81;5054298;28;20495;-61
2021/09/27 09:49:04;;;;;;;4.68;3.08;;;;;;;33.78;29.00;100127.84;5066904;28;20471;-60
2021/09/27 09:51:37;;;;;;;3.22;2.53;;;;;;;32.04;31.07;100134.81;5066175;28;20044;-61
2021/09/27 09:54:18;;;;;;;4.45;3.05;;;;;;;30.64;33.72;100137.72;5064622;28;20142;-61
2021/09/27 09:57:00;;;;;;;3.20;2.90;;;;;;;32.77;30.88;100114.13;5066736;28;20669;-61
2021/09/27 09:59:32;;;;;;;3.70;2.95;;;;;;;32.71;30.78;100125.50;5064195;28;20510;-61
2021/09/27 10:02:01;;;;;;;3.80;3.05;;;;;;;30.84;32.93;100125.13;5061381;28;20059;-61
2021/09/27 10:04:39;;;;;;;4.25;3.50;;;;;;;31.50;32.29;100133.97;5063433;28;20053;-61
2021/09/27 10:07:12;;;;;;;3.60;3.30;;;;;;;33.29;29.59;100120.16;5053153;28;20064;-60
2021/09/27 10:09:50;;;;;;;3.65;3.25;;;;;;;33.32;29.08;100113.41;5066502;28;20056;-61
2021/09/27 10:12:47;;;;;;;4.68;3.28;;;;;;;34.31;28.30;100110.06;5054766;28;20068;-61
2021/09/27 10:15:17;;;;;;;3.63;3.30;;;;;;;35.04;27.27;100110.13;5066916;28;20507;-61
2021/09/27 10:17:44;;;;;;;3.92;3.05;;;;;;;34.00;28.58;100112.38;5069690;28;20040;-60
2021/09/27 10:20:17;;;;;;;3.53;2.50;;;;;;;33.13;29.70;100119.19;5054366;28;20076;-59
2021/09/27 10:22:52;;;;;;;3.25;2.95;;;;;;;31.14;32.98;100120.81;5067703;28;20056;-59
2021/09/27 10:25:31;;;;;;;3.17;2.80;;;;;;;31.08;33.28;100128.41;5062425;28;20052;-59
2021/09/27 10:28:00;;;;;;;3.50;3.00;;;;;;;30.24;35.36;100123.78;5062044;28;20056;-60
2021/09/27 10:30:40;;;;;;;3.75;2.58;;;;;;;30.92;33.71;100107.19;5069461;28;20495;-60
2021/09/27 10:33:15;;;;;;;5.38;3.08;;;;;;;30.45;34.76;100112.88;5062326;28;20052;-60
2021/09/27 10:35:52;;;;;;;3.65;2.75;;;;;;;29.64;35.70;100109.19;5060679;28;20060;-62
2021/09/27 10:38:28;;;;;;;4.15;3.13;;;;;;;31.78;32.08;100109.03;5054952;28;20053;-59
2021/09/27 10:41:00;;;;;;;3.65;3.03;;;;;;;32.70;30.89;100102.91;5071529;28;20063;-60
2021/09/27 10:43:28;;;;;;;3.00;2.70;;;;;;;33.46;29.71;100106.22;5064538;28;20056;-60
2021/09/27 10:46:00;;;;;;;3.00;2.30;;;;;;;32.47;30.94;100113.72;5056226;28;20049;-61
2021/09/27 10:48:33;;;;;;;3.50;2.63;;;;;;;31.14;32.96;100117.94;5071723;28;20052;-61
2021/09/27 10:51:06;;;;;;;3.33;2.40;;;;;;;31.45;33.00;100106.56;5055016;28;20049;-61
2021/09/27 10:53:38;;;;;;;6.07;3.25;;;;;;;32.46;31.35;100100.56;5065765;28;20052;-61
2021/09/27 10:56:15;;;;;;;3.70;2.70;;;;;;;32.43;31.48;100087.09;5069341;28;20040;-61
2021/09/27 10:58:47;;;;;;;3.05;2.67;;;;;;;32.62;30.83;100095.84;5067796;28;20056;-61
2021/09/27 11:01:40;;;;;;;3.97;2.47;;;;;;;34.29;28.82;100089.50;5071280;28;20052;-62
2021/09/27 11:04:14;;;;;;;5.07;2.60;;;;;;;32.64;30.60;100088.31;5067930;28;20059;-61
2021/09/27 11:06:49;;;;;;;3.55;2.20;;;;;;;31.87;31.71;100105.41;5056905;28;20057;-60
2021/09/27 11:09:33;;;;;;;4.03;2.70;;;;;;;30.85;34.17;100095.91;5052726;28;20498;-64
2021/09/27 11:12:07;;;;;;;2.70;2.00;;;;;;;30.59;34.46;100100.09;5059790;28;20426;-60
2021/09/27 11:14:51;;;;;;;4.03;2.20;;;;;;;30.08;35.47;100104.56;5058719;28;20049;-61
2021/09/27 11:17:30;;;;;;;3.63;2.30;;;;;;;30.91;33.90;100116.28;5050855;28;20052;-60
2021/09/27 11:20:23;;;;;;;3.60;2.50;;;;;;;30.67;33.93;100113.78;5065145;28;20052;-60
2021/09/27 11:23:18;;;;;;;4.45;2.13;;;;;;;30.81;33.88;100114.56;5054954;28;20518;-60
2021/09/27 11:25:48;;;;;;;4.85;2.38;;;;;;;29.37;35.82;100126.75;5066783;28;20053;-59
2021/09/27 11:28:30;;;;;;;3.72;2.67;;;;;;;28.63;37.77;100111.88;5068662;28;20071;-60
2021/09/27 11:31:20;;;;;;;2.50;1.95;;;;;;;27.83;39.49;100109.19;5062760;28;20067;-60
2021/09/27 11:33:53;;;;;;;6.05;2.38;;;;;;;27.03;41.04;100102.63;5062658;28;20045;-59
2021/09/27 11:36:32;;;;;;;3.47;2.42;;;;;;;26.83;41.79;100123.38;5068337;28;20569;-60
2021/09/27 11:39:29;;;;;;;3.78;2.50;;;;;;;26.26;42.85;100102.22;5069826;28;20048;-60
2021/09/27 11:42:14;;;;;;;3.53;2.30;;;;;;;26.25;43.53;100100.63;5062485;28;20057;-60
2021/09/27 11:44:56;;;;;;;3.85;2.50;;;;;;;25.80;44.43;100117.16;5020612;28;20835;-60
2021/09/27 11:47:44;;;;;;;4.68;2.45;;;;;;;25.31;45.49;100101.03;5061414;28;20048;-60
2021/09/27 11:50:34;;;;;;;3.90;2.25;;;;;;;25.35;45.45;100085.94;5062837;28;20056;-59
2021/09/27 11:53:11;;;;;;;4.25;2.50;;;;;;;25.31;45.08;100088.81;5061804;28;20056;-60
2021/09/27 11:55:43;;;;;;;3.75;2.40;;;;;;;25.49;44.83;100083.72;5068857;28;20044;-60